createdAt,value
2023-02-14T00:00:34.931Z,6.60
2023-02-14T00:01:34.889Z,5.50
2023-02-14T00:02:34.920Z,5.90
2023-02-14T00:03:34.882Z,5.80
2023-02-14T00:04:34.917Z,5.70
2023-02-14T00:05:34.867Z,5.80
2023-02-14T00:06:34.855Z,5.30
2023-02-14T00:07:34.828Z,5.60
2023-02-14T00:08:34.823Z,6.10
2023-02-14T00:09:34.867Z,5.90
2023-02-14T00:10:34.807Z,5.60
2023-02-14T00:11:34.814Z,5.30
2023-02-14T00:12:34.848Z,5.50
2023-02-14T00:13:34.780Z,6.20
2023-02-14T00:14:34.809Z,5.70
2023-02-14T00:15:34.765Z,5.30
2023-02-14T00:16:34.752Z,5.90
2023-02-14T00:17:34.717Z,5.60
2023-02-14T00:18:34.720Z,5.90
2023-02-14T00:19:34.751Z,5.80
2023-02-14T00:20:34.731Z,5.70
2023-02-14T00:21:34.689Z,5.40
2023-02-14T00:22:34.680Z,5.80
2023-02-14T00:23:34.714Z,5.30
2023-02-14T00:24:34.657Z,5.70
2023-02-14T00:25:34.638Z,5.10
2023-02-14T00:26:34.673Z,5.20
2023-02-14T00:27:34.665Z,5.30
2023-02-14T00:28:34.659Z,5.10
2023-02-14T00:29:34.596Z,5.60
2023-02-14T00:30:34.742Z,5.70
2023-02-14T00:31:34.669Z,5.00
2023-02-14T00:32:34.578Z,5.90
2023-02-14T00:33:34.638Z,5.90
2023-02-14T00:34:34.555Z,5.40
2023-02-14T00:35:34.535Z,5.70
2023-02-14T00:36:34.562Z,5.60
2023-02-14T00:37:34.516Z,6.20
2023-02-14T00:38:34.530Z,5.50
2023-02-14T00:39:34.515Z,5.90
2023-02-14T00:40:34.512Z,6.20
2023-02-14T00:41:34.501Z,5.50
2023-02-14T00:42:34.467Z,5.70
2023-02-14T00:43:34.500Z,5.50
2023-02-14T00:44:34.462Z,5.10
2023-02-14T00:45:34.525Z,5.20
2023-02-14T00:46:34.428Z,5.90
2023-02-14T00:47:34.437Z,5.90
2023-02-14T00:48:34.413Z,5.90
2023-02-14T00:49:34.462Z,5.40
2023-02-14T00:50:34.393Z,5.30
2023-02-14T00:51:34.383Z,5.20
2023-02-14T00:52:34.381Z,6.60
2023-02-14T00:53:34.382Z,5.90
2023-02-14T00:54:34.343Z,5.60
2023-02-14T00:55:34.347Z,5.20
2023-02-14T00:56:34.324Z,5.20
2023-02-14T00:57:34.306Z,6.00
2023-02-14T00:58:34.317Z,5.50
2023-02-14T00:59:34.304Z,6.00
2023-02-14T01:00:34.341Z,5.50
2023-02-14T01:01:34.287Z,5.40
2023-02-14T01:02:34.377Z,6.10
2023-02-14T01:03:34.319Z,5.80
2023-02-14T01:04:34.251Z,5.40
2023-02-14T01:05:34.253Z,5.90
2023-02-14T01:06:34.223Z,5.30
2023-02-14T01:07:34.209Z,5.70
2023-02-14T01:08:34.202Z,5.80
2023-02-14T01:09:34.204Z,5.00
2023-02-14T01:10:34.188Z,6.20
2023-02-14T01:11:34.167Z,5.30
2023-02-14T01:12:34.168Z,5.00
2023-02-14T01:13:34.163Z,5.40
2023-02-14T01:14:34.141Z,5.40
2023-02-14T01:15:34.143Z,5.10
2023-02-14T01:16:34.154Z,5.00
2023-02-14T01:17:34.098Z,5.30
2023-02-14T01:18:34.102Z,6.20
2023-02-14T01:19:34.128Z,5.80
2023-02-14T01:20:34.110Z,5.90
2023-02-14T01:21:34.067Z,6.20
2023-02-14T01:22:34.079Z,6.70
2023-02-14T01:23:34.042Z,5.00
2023-02-14T01:24:34.057Z,4.90
2023-02-14T01:25:34.026Z,5.20
2023-02-14T01:26:34.053Z,5.80
2023-02-14T01:27:33.999Z,5.00
2023-02-14T01:28:33.992Z,5.40
2023-02-14T01:29:33.994Z,5.50
2023-02-14T01:30:33.981Z,5.90
2023-02-14T01:31:34.234Z,5.20
2023-02-14T01:32:33.977Z,5.40
2023-02-14T01:33:33.953Z,6.20
2023-02-14T01:34:33.937Z,5.60
2023-02-14T01:35:33.937Z,5.60
2023-02-14T01:36:33.928Z,5.10
2023-02-14T01:37:33.923Z,5.60
2023-02-14T01:38:33.910Z,5.60
2023-02-14T01:39:33.870Z,5.30
2023-02-14T01:40:33.884Z,5.10
2023-02-14T01:41:33.862Z,5.20
2023-02-14T01:42:33.855Z,5.80
2023-02-14T01:43:33.852Z,5.20
2023-02-14T01:44:33.845Z,5.10
2023-02-14T01:45:33.840Z,5.60
2023-02-14T01:46:33.821Z,5.40
2023-02-14T01:47:33.800Z,4.70
2023-02-14T01:48:33.803Z,5.70
2023-02-14T01:49:33.790Z,5.50
2023-02-14T01:50:33.800Z,5.50
2023-02-14T01:51:33.859Z,5.20
2023-02-14T01:52:33.752Z,5.00
2023-02-14T01:53:33.736Z,5.70
2023-02-14T01:54:33.725Z,5.70
2023-02-14T01:55:33.754Z,5.60
2023-02-14T01:56:33.706Z,5.40
2023-02-14T01:57:33.688Z,5.60
2023-02-14T01:58:33.730Z,5.50
2023-02-14T01:59:33.680Z,5.70
2023-02-14T02:00:39.769Z,5.40
2023-02-14T02:01:33.795Z,4.90
2023-02-14T02:02:33.658Z,5.60
2023-02-14T02:03:33.634Z,5.40
2023-02-14T02:04:33.632Z,5.40
2023-02-14T02:05:33.632Z,5.40
2023-02-14T02:06:33.618Z,5.30
2023-02-14T02:07:33.610Z,6.10
2023-02-14T02:08:33.573Z,5.20
2023-02-14T02:09:33.584Z,5.30
2023-02-14T02:10:33.576Z,5.40
2023-02-14T02:11:33.560Z,6.10
2023-02-14T02:12:33.540Z,4.90
2023-02-14T02:13:33.536Z,5.70
2023-02-14T02:14:33.525Z,5.70
2023-02-14T02:15:33.525Z,5.30
2023-02-14T02:16:33.600Z,5.50
2023-02-14T02:17:33.503Z,5.70
2023-02-14T02:18:33.478Z,4.80
2023-02-14T02:19:33.462Z,5.00
2023-02-14T02:20:33.493Z,5.10
2023-02-14T02:21:33.448Z,5.10
2023-02-14T02:22:33.441Z,4.80
2023-02-14T02:23:33.435Z,6.20
2023-02-14T02:24:33.442Z,5.00
2023-02-14T02:25:33.407Z,5.80
2023-02-14T02:26:33.416Z,5.20
2023-02-14T02:27:33.375Z,5.30
2023-02-14T02:28:33.387Z,5.50
2023-02-14T02:29:33.406Z,4.40
2023-02-14T02:30:33.499Z,4.50
2023-02-14T02:31:33.418Z,5.70
2023-02-14T02:32:33.337Z,5.30
2023-02-14T02:33:33.332Z,5.40
2023-02-14T02:34:33.308Z,5.20
2023-02-14T02:35:33.328Z,5.40
2023-02-14T02:36:33.289Z,5.40
2023-02-14T02:37:33.299Z,4.90
2023-02-14T02:38:33.290Z,5.80
2023-02-14T02:39:33.259Z,5.70
2023-02-14T02:40:33.268Z,6.20
2023-02-14T02:41:33.277Z,4.90
2023-02-14T02:42:33.225Z,5.60
2023-02-14T02:43:33.216Z,5.20
2023-02-14T02:44:33.212Z,4.80
2023-02-14T02:45:33.243Z,5.00
2023-02-14T02:46:33.188Z,5.60
2023-02-14T02:47:33.191Z,5.30
2023-02-14T02:48:33.156Z,4.80
2023-02-14T02:49:33.159Z,4.90
2023-02-14T02:50:33.177Z,5.60
2023-02-14T02:51:33.144Z,5.90
2023-02-14T02:52:33.120Z,5.70
2023-02-14T02:53:33.115Z,5.00
2023-02-14T02:54:33.098Z,5.20
2023-02-14T02:55:33.115Z,4.70
2023-02-14T02:56:33.074Z,5.20
2023-02-14T02:57:33.077Z,5.40
2023-02-14T02:58:33.101Z,4.80
2023-02-14T02:59:33.065Z,5.20
2023-02-14T03:00:33.065Z,5.20
2023-02-14T03:01:33.055Z,5.40
2023-02-14T03:02:33.025Z,5.60
2023-02-14T03:03:33.037Z,5.00
2023-02-14T03:04:33.097Z,5.50
2023-02-14T03:05:33.004Z,5.10
2023-02-14T03:06:32.968Z,5.30
2023-02-14T03:07:32.988Z,5.40
2023-02-14T03:08:32.950Z,5.30
2023-02-14T03:09:32.949Z,5.10
2023-02-14T03:10:32.944Z,5.10
2023-02-14T03:11:32.932Z,5.70
2023-02-14T03:12:32.912Z,5.40
2023-02-14T03:13:32.908Z,5.20
2023-02-14T03:14:32.893Z,5.10
2023-02-14T03:15:32.992Z,5.20
2023-02-14T03:16:32.887Z,5.20
2023-02-14T03:17:32.864Z,5.60
2023-02-14T03:18:32.870Z,5.60
2023-02-14T03:19:32.842Z,5.80
2023-02-14T03:20:32.846Z,5.50
2023-02-14T03:21:32.825Z,5.60
2023-02-14T03:22:32.815Z,6.00
2023-02-14T03:23:32.805Z,5.40
2023-02-14T03:24:32.794Z,6.60
2023-02-14T03:25:32.825Z,5.40
2023-02-14T03:26:32.785Z,5.60
2023-02-14T03:27:32.771Z,5.20
2023-02-14T03:28:32.755Z,5.90
2023-02-14T03:29:32.748Z,6.10
2023-02-14T03:30:32.779Z,5.80
2023-02-14T03:31:32.847Z,4.80
2023-02-14T03:32:32.723Z,5.00
2023-02-14T03:33:32.706Z,5.60
2023-02-14T03:34:32.688Z,5.60
2023-02-14T03:35:32.700Z,5.00
2023-02-14T03:36:32.667Z,5.70
2023-02-14T03:37:32.680Z,5.40
2023-02-14T03:38:32.645Z,6.10
2023-02-14T03:39:32.644Z,6.00
2023-02-14T03:40:32.641Z,5.90
2023-02-14T03:41:32.622Z,5.90
2023-02-14T03:42:32.618Z,5.40
2023-02-14T03:43:32.609Z,5.70
2023-02-14T03:44:32.583Z,6.00
2023-02-14T03:45:32.684Z,5.40
2023-02-14T03:46:32.693Z,5.40
2023-02-14T03:47:32.581Z,5.40
2023-02-14T03:48:32.584Z,5.40
2023-02-14T03:49:32.560Z,6.90
2023-02-14T03:50:32.563Z,6.10
2023-02-14T03:51:32.517Z,6.20
2023-02-14T03:52:32.499Z,6.20
2023-02-14T03:53:32.505Z,6.60
2023-02-14T03:54:32.501Z,4.90
2023-02-14T03:55:32.488Z,5.70
2023-02-14T03:56:32.496Z,5.60
2023-02-14T03:57:32.456Z,5.70
2023-02-14T03:58:32.442Z,5.50
2023-02-14T03:59:32.444Z,6.30
2023-02-14T04:00:32.454Z,6.20
2023-02-14T04:01:32.456Z,5.90
2023-02-14T04:02:32.410Z,5.20
2023-02-14T04:03:32.440Z,5.40
2023-02-14T04:04:32.381Z,6.30
2023-02-14T04:05:32.388Z,5.80
2023-02-14T04:06:32.360Z,6.10
2023-02-14T04:07:32.362Z,5.70
2023-02-14T04:08:32.335Z,6.00
2023-02-14T04:09:32.335Z,6.00
2023-02-14T04:10:32.331Z,5.60
2023-02-14T04:11:32.329Z,5.70
2023-02-14T04:12:37.768Z,5.70
2023-02-14T04:13:32.303Z,5.60
2023-02-14T04:14:32.277Z,5.30
2023-02-14T04:15:32.271Z,5.70
2023-02-14T04:16:32.290Z,5.70
2023-02-14T04:17:32.250Z,6.00
2023-02-14T04:18:32.242Z,4.80
2023-02-14T04:19:32.223Z,5.80
2023-02-14T04:20:32.223Z,5.50
2023-02-14T04:21:32.232Z,4.90
2023-02-14T04:22:32.194Z,5.10
2023-02-14T04:23:32.186Z,6.50
2023-02-14T04:24:32.173Z,6.10
2023-02-14T04:25:32.165Z,4.90
2023-02-14T04:26:32.170Z,5.60
2023-02-14T04:27:32.149Z,5.40
2023-02-14T04:28:32.132Z,5.70
2023-02-14T04:29:32.124Z,5.30
2023-02-14T04:30:32.177Z,5.40
2023-02-14T04:31:32.262Z,5.10
2023-02-14T04:32:32.088Z,5.50
2023-02-14T04:33:32.122Z,5.60
2023-02-14T04:34:32.068Z,5.90
2023-02-14T04:35:32.074Z,6.10
2023-02-14T04:36:32.378Z,5.20
2023-02-14T04:37:32.045Z,5.90
2023-02-14T04:38:32.023Z,5.70
2023-02-14T04:39:32.028Z,4.90
2023-02-14T04:40:31.999Z,5.10
2023-02-14T04:41:32.008Z,5.90
2023-02-14T04:42:31.998Z,5.20
2023-02-14T04:43:31.980Z,5.30
2023-02-14T04:44:31.993Z,5.50
2023-02-14T04:45:31.959Z,5.40
2023-02-14T04:46:32.035Z,5.30
2023-02-14T04:47:31.944Z,6.10
2023-02-14T04:48:31.922Z,5.40
2023-02-14T04:49:31.921Z,5.40
2023-02-14T04:50:31.897Z,5.50
2023-02-14T04:51:31.904Z,6.20
2023-02-14T04:52:31.881Z,5.70
2023-02-14T04:53:31.871Z,6.10
2023-02-14T04:54:31.857Z,5.70
2023-02-14T04:55:31.849Z,5.20
2023-02-14T04:56:31.859Z,4.90
2023-02-14T04:57:31.845Z,6.00
2023-02-14T04:58:31.814Z,5.60
2023-02-14T04:59:32.816Z,6.10
2023-02-14T05:00:31.861Z,4.40
2023-02-14T05:01:31.812Z,4.60
2023-02-14T05:02:31.781Z,4.50
2023-02-14T05:03:31.768Z,4.70
2023-02-14T05:04:31.753Z,5.30
2023-02-14T05:05:31.749Z,5.70
2023-02-14T05:06:31.896Z,5.40
2023-02-14T05:07:31.734Z,5.20
2023-02-14T05:08:31.726Z,5.40
2023-02-14T05:09:31.712Z,5.00
2023-02-14T05:10:31.750Z,5.10
2023-02-14T05:11:31.728Z,4.80
2023-02-14T05:12:31.668Z,5.70
2023-02-14T05:13:31.668Z,5.40
2023-02-14T05:14:31.651Z,6.00
2023-02-14T05:15:31.645Z,6.00
2023-02-14T05:16:31.792Z,6.10
2023-02-14T05:17:31.617Z,6.10
2023-02-14T05:18:31.606Z,5.80
2023-02-14T05:19:31.605Z,7.00
2023-02-14T05:20:31.584Z,8.10
2023-02-14T05:21:31.592Z,6.60
2023-02-14T05:22:31.572Z,6.20
2023-02-14T05:23:31.555Z,6.90
2023-02-14T05:24:31.548Z,6.70
2023-02-14T05:25:31.541Z,7.40
2023-02-14T05:26:31.543Z,6.30
2023-02-14T05:27:31.511Z,6.00
2023-02-14T05:28:31.503Z,5.40
2023-02-14T05:29:31.533Z,6.10
2023-02-14T05:30:31.683Z,6.30
2023-02-14T05:31:31.633Z,5.50
2023-02-14T05:32:31.466Z,6.50
2023-02-14T05:33:31.455Z,6.50
2023-02-14T05:34:31.457Z,5.60
2023-02-14T05:35:31.432Z,5.60
2023-02-14T05:36:31.449Z,5.80
2023-02-14T05:37:31.422Z,6.10
2023-02-14T05:38:31.409Z,5.60
2023-02-14T05:39:31.418Z,5.20
2023-02-14T05:40:31.399Z,5.70
2023-02-14T05:41:31.393Z,6.30
2023-02-14T05:42:31.355Z,6.50
2023-02-14T05:43:31.367Z,5.30
2023-02-14T05:44:31.376Z,5.50
2023-02-14T05:45:31.377Z,6.00
2023-02-14T05:46:31.361Z,5.20
2023-02-14T05:47:31.313Z,5.30
2023-02-14T05:48:31.304Z,5.20
2023-02-14T05:49:31.367Z,4.70
2023-02-14T05:50:31.292Z,5.10
2023-02-14T05:51:31.242Z,5.50
2023-02-14T05:52:31.272Z,5.20
2023-02-14T05:53:31.253Z,5.40
2023-02-14T05:54:31.243Z,5.30
2023-02-14T05:55:31.230Z,6.10
2023-02-14T05:56:31.226Z,6.30
2023-02-14T05:57:31.163Z,7.20
2023-02-14T05:58:31.193Z,5.70
2023-02-14T05:59:31.216Z,5.30
2023-02-14T06:00:31.179Z,5.50
2023-02-14T06:01:31.146Z,8.10
2023-02-14T06:02:31.141Z,12.90
2023-02-14T06:03:31.101Z,10.10
2023-02-14T06:04:31.105Z,9.10
2023-02-14T06:05:31.082Z,6.30
2023-02-14T06:06:31.075Z,6.00
2023-02-14T06:07:31.058Z,5.50
2023-02-14T06:08:31.074Z,5.70
2023-02-14T06:09:31.034Z,5.60
2023-02-14T06:10:31.027Z,5.70
2023-02-14T06:11:31.042Z,6.20
2023-02-14T06:12:31.002Z,6.70
2023-02-14T06:13:30.997Z,6.10
2023-02-14T06:14:30.983Z,5.80
2023-02-14T06:15:31.307Z,5.70
2023-02-14T06:16:31.061Z,5.60
2023-02-14T06:17:31.216Z,5.60
2023-02-14T06:18:30.943Z,5.60
2023-02-14T06:19:30.925Z,5.40
2023-02-14T06:20:30.926Z,5.90
2023-02-14T06:21:30.936Z,5.40
2023-02-14T06:22:30.915Z,6.00
2023-02-14T06:23:30.900Z,5.00
2023-02-14T06:24:30.886Z,6.10
2023-02-14T06:25:30.880Z,6.70
2023-02-14T06:26:30.870Z,5.90
2023-02-14T06:27:30.854Z,5.40
2023-02-14T06:28:30.845Z,5.10
2023-02-14T06:29:30.828Z,5.40
2023-02-14T06:30:30.926Z,6.30
2023-02-14T06:31:30.936Z,6.10
2023-02-14T06:32:30.797Z,6.00
2023-02-14T06:33:30.782Z,5.90
2023-02-14T06:34:30.779Z,5.80
2023-02-14T06:35:30.765Z,5.40
2023-02-14T06:36:30.774Z,5.60
2023-02-14T06:37:30.747Z,5.60
2023-02-14T06:38:30.736Z,6.60
2023-02-14T06:39:30.716Z,5.80
2023-02-14T06:40:30.732Z,5.60
2023-02-14T06:41:30.716Z,5.10
2023-02-14T06:42:30.700Z,6.50
2023-02-14T06:43:30.677Z,5.70
2023-02-14T06:44:30.674Z,5.90
2023-02-14T06:45:30.651Z,5.80
2023-02-14T06:46:30.730Z,5.30
2023-02-14T06:47:30.635Z,5.10
2023-02-14T06:48:30.629Z,6.40
2023-02-14T06:49:30.620Z,6.40
2023-02-14T06:50:30.610Z,5.80
2023-02-14T06:51:30.606Z,5.70
2023-02-14T06:52:30.599Z,5.10
2023-02-14T06:53:30.575Z,5.90
2023-02-14T06:54:30.595Z,5.50
2023-02-14T06:55:30.560Z,6.00
2023-02-14T06:56:30.556Z,5.70
2023-02-14T06:57:30.538Z,5.70
2023-02-14T06:58:30.544Z,5.40
2023-02-14T06:59:30.536Z,5.50
2023-02-14T07:00:30.710Z,5.60
2023-02-14T07:01:30.541Z,5.90
2023-02-14T07:02:30.543Z,5.00
2023-02-14T07:03:30.476Z,5.10
2023-02-14T07:04:30.462Z,6.00
2023-02-14T07:05:30.445Z,6.20
2023-02-14T07:06:30.452Z,5.70
2023-02-14T07:07:30.465Z,5.20
2023-02-14T07:08:30.418Z,5.50
2023-02-14T07:09:30.404Z,5.80
2023-02-14T07:10:30.445Z,5.40
2023-02-14T07:11:30.428Z,5.40
2023-02-14T07:12:30.385Z,6.10
2023-02-14T07:13:30.359Z,5.50
2023-02-14T07:14:30.359Z,5.70
2023-02-14T07:15:30.370Z,6.20
2023-02-14T07:16:30.345Z,5.70
2023-02-14T07:17:30.353Z,6.50
2023-02-14T07:18:30.318Z,5.90
2023-02-14T07:19:30.341Z,5.80
2023-02-14T07:20:30.348Z,5.70
2023-02-14T07:21:30.278Z,6.40
2023-02-14T07:22:30.519Z,6.20
2023-02-14T07:23:30.255Z,5.60
2023-02-14T07:24:30.257Z,6.20
2023-02-14T07:25:30.243Z,5.40
2023-02-14T07:26:30.428Z,5.30
2023-02-14T07:27:30.229Z,5.70
2023-02-14T07:28:30.221Z,6.20
2023-02-14T07:29:30.209Z,5.40
2023-02-14T07:30:30.424Z,5.40
2023-02-14T07:31:30.266Z,5.60
2023-02-14T07:32:30.189Z,5.90
2023-02-14T07:33:30.158Z,5.20
2023-02-14T07:34:30.251Z,5.40
2023-02-14T07:35:30.151Z,5.90
2023-02-14T07:36:30.154Z,6.70
2023-02-14T07:37:30.119Z,5.60
2023-02-14T07:38:30.124Z,6.40
2023-02-14T07:39:30.093Z,5.60
2023-02-14T07:40:30.112Z,6.30
2023-02-14T07:41:30.083Z,5.90
2023-02-14T07:42:30.115Z,6.30
2023-02-14T07:43:30.056Z,6.10
2023-02-14T07:44:30.056Z,6.40
2023-02-14T07:45:30.051Z,6.70
2023-02-14T07:46:30.077Z,6.00
2023-02-14T07:47:30.023Z,6.30
2023-02-14T07:48:31.954Z,5.90
2023-02-14T07:49:29.992Z,6.80
2023-02-14T07:50:29.989Z,5.10
2023-02-14T07:51:29.973Z,5.90
2023-02-14T07:52:29.979Z,6.20
2023-02-14T07:53:29.953Z,6.30
2023-02-14T07:54:29.953Z,6.50
2023-02-14T07:55:29.948Z,6.30
2023-02-14T07:56:29.921Z,6.20
2023-02-14T07:57:29.922Z,5.70
2023-02-14T07:58:29.994Z,5.40
2023-02-14T07:59:29.897Z,5.90
2023-02-14T08:00:29.906Z,5.70
2023-02-14T08:01:29.904Z,5.60
2023-02-14T08:02:29.899Z,6.70
2023-02-14T08:03:29.851Z,6.20
2023-02-14T08:04:32.194Z,6.10
2023-02-14T08:05:29.957Z,6.90
2023-02-14T08:06:29.859Z,6.90
2023-02-14T08:07:29.838Z,5.80
2023-02-14T08:08:29.822Z,6.20
2023-02-14T08:09:29.790Z,6.40
2023-02-14T08:10:29.795Z,6.30
2023-02-14T08:11:29.772Z,6.60
2023-02-14T08:12:29.808Z,6.40
2023-02-14T08:13:29.757Z,6.10
2023-02-14T08:14:29.742Z,6.50
2023-02-14T08:15:29.758Z,5.60
2023-02-14T08:16:29.769Z,6.50
2023-02-14T08:17:29.734Z,5.90
2023-02-14T08:18:29.703Z,6.60
2023-02-14T08:19:29.701Z,7.00
2023-02-14T08:20:29.681Z,6.40
2023-02-14T08:21:29.666Z,6.00
2023-02-14T08:22:29.665Z,7.40
2023-02-14T08:23:29.637Z,10.80
2023-02-14T08:24:29.637Z,10.80
2023-02-14T08:25:29.647Z,8.10
2023-02-14T08:26:29.634Z,6.80
2023-02-14T08:27:29.649Z,7.20
2023-02-14T08:28:29.590Z,6.70
2023-02-14T08:29:29.592Z,6.40
2023-02-14T08:30:29.695Z,6.60
2023-02-14T08:31:35.729Z,7.30
2023-02-14T08:32:29.710Z,6.40
2023-02-14T08:33:29.540Z,7.10
2023-02-14T08:34:29.538Z,7.00
2023-02-14T08:35:29.512Z,6.70
2023-02-14T08:36:29.519Z,7.20
2023-02-14T08:37:29.514Z,7.60
2023-02-14T08:38:29.504Z,6.10
2023-02-14T08:39:29.476Z,6.00
2023-02-14T08:40:29.477Z,6.50
2023-02-14T08:41:29.461Z,6.90
2023-02-14T08:42:29.466Z,6.60
2023-02-14T08:43:29.472Z,6.80
2023-02-14T08:44:29.477Z,6.90
2023-02-14T08:45:29.402Z,7.30
2023-02-14T08:46:29.511Z,8.00
2023-02-14T08:47:29.421Z,6.50
2023-02-14T08:48:29.456Z,7.30
2023-02-14T08:49:29.391Z,7.00
2023-02-14T08:50:29.362Z,6.70
2023-02-14T08:51:29.362Z,6.80
2023-02-14T08:52:29.381Z,7.10
2023-02-14T08:53:29.345Z,7.40
2023-02-14T08:54:29.324Z,7.10
2023-02-14T08:55:29.338Z,6.70
2023-02-14T08:56:29.308Z,6.60
2023-02-14T08:57:29.299Z,6.70
2023-02-14T08:58:30.486Z,7.40
2023-02-14T08:59:29.320Z,6.60
2023-02-14T09:00:29.307Z,6.90
2023-02-14T09:01:29.429Z,6.80
2023-02-14T09:02:29.301Z,6.90
2023-02-14T09:03:29.238Z,7.60
2023-02-14T09:04:29.438Z,6.60
2023-02-14T09:05:29.206Z,6.80
2023-02-14T09:06:29.209Z,6.70
2023-02-14T09:07:29.238Z,6.70
2023-02-14T09:08:29.179Z,6.70
2023-02-14T09:09:29.159Z,6.30
2023-02-14T09:10:29.180Z,6.90
2023-02-14T09:11:29.153Z,6.80
2023-02-14T09:12:29.150Z,6.70
2023-02-14T09:13:29.118Z,6.00
2023-02-14T09:14:31.177Z,6.50
2023-02-14T09:15:29.105Z,7.10
2023-02-14T09:16:29.144Z,6.60
2023-02-14T09:17:29.133Z,7.00
2023-02-14T09:18:29.083Z,6.90
2023-02-14T09:19:29.132Z,6.50
2023-02-14T09:20:29.194Z,6.70
2023-02-14T09:21:29.065Z,6.50
2023-02-14T09:22:29.088Z,7.30
2023-02-14T09:23:29.068Z,6.80
2023-02-14T09:24:29.009Z,6.10
2023-02-14T09:25:29.024Z,5.70
2023-02-14T09:26:28.988Z,6.70
2023-02-14T09:27:29.029Z,6.50
2023-02-14T09:28:28.991Z,6.60
2023-02-14T09:29:28.993Z,7.20
2023-02-14T09:30:29.013Z,7.50
2023-02-14T09:31:29.027Z,5.80
2023-02-14T09:32:29.061Z,6.30
2023-02-14T09:33:28.953Z,5.90
2023-02-14T09:34:28.901Z,6.80
2023-02-14T09:35:28.921Z,6.90
2023-02-14T09:36:28.932Z,6.80
2023-02-14T09:37:28.913Z,7.00
2023-02-14T09:38:28.876Z,7.60
2023-02-14T09:39:28.884Z,6.80
2023-02-14T09:40:28.842Z,6.60
2023-02-14T09:41:28.922Z,7.60
2023-02-14T09:42:28.867Z,7.70
2023-02-14T09:43:28.851Z,6.90
2023-02-14T09:44:28.836Z,6.80
2023-02-14T09:45:28.871Z,6.80
2023-02-14T09:46:28.804Z,7.10
2023-02-14T09:47:28.790Z,7.30
2023-02-14T09:48:28.782Z,7.30
2023-02-14T09:49:28.798Z,7.50
2023-02-14T09:50:28.744Z,6.70
2023-02-14T09:51:28.770Z,6.60
2023-02-14T09:52:28.747Z,7.20
2023-02-14T09:53:28.724Z,6.80
2023-02-14T09:54:28.766Z,7.70
2023-02-14T09:55:28.692Z,7.80
2023-02-14T09:56:28.686Z,7.00
2023-02-14T09:57:28.688Z,6.50
2023-02-14T09:58:28.657Z,6.60
2023-02-14T09:59:28.671Z,6.90
2023-02-14T10:00:28.642Z,6.10
2023-02-14T10:01:28.687Z,7.80
2023-02-14T10:02:28.748Z,7.20
2023-02-14T10:03:28.608Z,7.30
2023-02-14T10:04:28.596Z,6.70
2023-02-14T10:05:28.587Z,7.60
2023-02-14T10:06:28.582Z,7.00
2023-02-14T10:07:28.590Z,7.00
2023-02-14T10:08:28.562Z,6.90
2023-02-14T10:09:28.554Z,7.00
2023-02-14T10:10:28.534Z,6.60
2023-02-14T10:11:28.557Z,7.30
2023-02-14T10:12:28.526Z,6.30
2023-02-14T10:13:28.504Z,6.30
2023-02-14T10:14:28.499Z,6.50
2023-02-14T10:15:28.648Z,6.30
2023-02-14T10:16:34.537Z,6.10
2023-02-14T10:17:28.482Z,7.00
2023-02-14T10:18:28.468Z,5.80
2023-02-14T10:19:30.115Z,6.20
2023-02-14T10:20:28.441Z,6.20
2023-02-14T10:21:28.416Z,6.00
2023-02-14T10:22:28.449Z,5.90
2023-02-14T10:23:28.427Z,6.30
2023-02-14T10:24:28.402Z,7.00
2023-02-14T10:25:28.384Z,6.50
2023-02-14T10:26:28.390Z,7.00
2023-02-14T10:27:28.402Z,6.80
2023-02-14T10:28:28.349Z,6.30
2023-02-14T10:29:28.360Z,6.50
2023-02-14T10:30:28.486Z,7.00
2023-02-14T10:31:28.388Z,6.40
2023-02-14T10:32:28.351Z,6.40
2023-02-14T10:33:28.334Z,7.20
2023-02-14T10:34:28.283Z,5.80
2023-02-14T10:35:28.321Z,6.40
2023-02-14T10:36:28.268Z,6.30
2023-02-14T10:37:28.288Z,6.20
2023-02-14T10:38:28.261Z,6.40
2023-02-14T10:39:28.259Z,6.10
2023-02-14T10:40:28.340Z,6.50
2023-02-14T10:41:28.243Z,9.60
2023-02-14T10:42:28.245Z,7.10
2023-02-14T10:43:28.226Z,6.50
2023-02-14T10:44:28.290Z,7.00
2023-02-14T10:45:28.176Z,6.80
2023-02-14T10:46:28.238Z,6.60
2023-02-14T10:47:28.169Z,6.60
2023-02-14T10:48:28.166Z,6.30
2023-02-14T10:49:28.140Z,6.10
2023-02-14T10:50:28.138Z,5.90
2023-02-14T10:51:28.118Z,6.50
2023-02-14T10:52:28.097Z,5.60
2023-02-14T10:53:28.264Z,5.60
2023-02-14T10:54:28.082Z,6.90
2023-02-14T10:55:32.445Z,6.30
2023-02-14T10:56:28.058Z,6.80
2023-02-14T10:57:28.091Z,8.00
2023-02-14T10:58:28.042Z,6.90
2023-02-14T10:59:28.051Z,6.90
2023-02-14T11:00:28.043Z,6.90
2023-02-14T11:01:28.070Z,6.60
2023-02-14T11:02:28.099Z,6.50
2023-02-14T11:03:28.080Z,6.10
2023-02-14T11:04:27.994Z,7.20
2023-02-14T11:05:27.996Z,6.00
2023-02-14T11:06:27.961Z,6.10
2023-02-14T11:07:27.969Z,6.90
2023-02-14T11:08:27.970Z,6.30
2023-02-14T11:09:28.020Z,6.30
2023-02-14T11:10:27.947Z,7.10
2023-02-14T11:11:27.953Z,5.90
2023-02-14T11:12:27.907Z,6.60
2023-02-14T11:13:27.913Z,5.10
2023-02-14T11:14:27.894Z,7.10
2023-02-14T11:15:27.896Z,5.80
2023-02-14T11:16:27.948Z,6.50
2023-02-14T11:17:27.875Z,6.30
2023-02-14T11:18:27.860Z,7.40
2023-02-14T11:19:27.846Z,6.00
2023-02-14T11:20:27.861Z,6.10
2023-02-14T11:21:27.804Z,7.00
2023-02-14T11:22:27.789Z,6.60
2023-02-14T11:23:27.813Z,6.40
2023-02-14T11:24:27.779Z,6.30
2023-02-14T11:25:27.791Z,6.20
2023-02-14T11:26:27.758Z,6.90
2023-02-14T11:27:27.830Z,6.00
2023-02-14T11:28:27.733Z,7.20
2023-02-14T11:29:27.739Z,6.20
2023-02-14T11:30:27.955Z,6.50
2023-02-14T11:31:27.795Z,6.70
2023-02-14T11:32:27.704Z,6.70
2023-02-14T11:33:27.732Z,5.80
2023-02-14T11:34:27.664Z,6.70
2023-02-14T11:35:27.674Z,5.90
2023-02-14T11:36:27.698Z,6.10
2023-02-14T11:37:27.650Z,6.50
2023-02-14T11:38:27.679Z,6.50
2023-02-14T11:39:27.630Z,6.30
2023-02-14T11:40:27.610Z,5.60
2023-02-14T11:41:27.613Z,6.60
2023-02-14T11:42:27.625Z,6.10
2023-02-14T11:43:27.601Z,6.60
2023-02-14T11:44:27.565Z,6.60
2023-02-14T11:45:27.574Z,6.50
2023-02-14T11:46:27.616Z,6.80
2023-02-14T11:47:27.537Z,6.50
2023-02-14T11:48:37.779Z,6.90
2023-02-14T11:49:27.533Z,6.00
2023-02-14T11:50:27.522Z,6.60
2023-02-14T11:51:27.496Z,5.90
2023-02-14T11:52:27.501Z,6.40
2023-02-14T11:53:27.499Z,5.50
2023-02-14T11:54:27.462Z,6.10
2023-02-14T11:55:27.477Z,5.90
2023-02-14T11:56:27.453Z,6.50
2023-02-14T11:57:27.434Z,6.10
2023-02-14T11:58:27.454Z,6.90
2023-02-14T11:59:27.430Z,6.40
2023-02-14T12:00:27.403Z,5.70
2023-02-14T12:01:27.438Z,5.60
2023-02-14T12:02:27.417Z,5.70
2023-02-14T12:03:27.440Z,6.10
2023-02-14T12:04:27.831Z,6.10
2023-02-14T12:05:27.352Z,7.10
2023-02-14T12:06:27.589Z,6.20
2023-02-14T12:07:27.351Z,5.30
2023-02-14T12:08:27.374Z,5.90
2023-02-14T12:09:27.318Z,6.10
2023-02-14T12:10:27.298Z,6.70
2023-02-14T12:11:27.331Z,5.90
2023-02-14T12:12:27.289Z,6.00
2023-02-14T12:13:27.387Z,5.50
2023-02-14T12:14:27.316Z,6.20
2023-02-14T12:15:27.341Z,6.00
2023-02-14T12:16:28.297Z,6.10
2023-02-14T12:17:27.259Z,5.40
2023-02-14T12:18:27.233Z,5.80
2023-02-14T12:19:27.238Z,6.60
2023-02-14T12:20:27.210Z,6.10
2023-02-14T12:21:27.292Z,5.50
2023-02-14T12:22:28.402Z,6.00
2023-02-14T12:23:27.241Z,5.90
2023-02-14T12:24:27.175Z,6.50
2023-02-14T12:25:27.164Z,6.50
2023-02-14T12:26:27.202Z,5.70
2023-02-14T12:27:27.156Z,6.70
2023-02-14T12:28:27.145Z,6.20
2023-02-14T12:29:27.164Z,6.00
2023-02-14T12:30:27.119Z,6.00
2023-02-14T12:31:27.185Z,6.50
2023-02-14T12:32:27.070Z,6.00
2023-02-14T12:33:27.084Z,6.50
2023-02-14T12:34:27.068Z,6.10
2023-02-14T12:35:27.044Z,5.40
2023-02-14T12:36:27.036Z,5.70
2023-02-14T12:37:27.019Z,6.10
2023-02-14T12:38:27.050Z,5.50
2023-02-14T12:39:27.005Z,5.50
2023-02-14T12:40:26.990Z,5.50
2023-02-14T12:41:26.972Z,5.50
2023-02-14T12:42:26.969Z,5.80
2023-02-14T12:43:26.977Z,6.40
2023-02-14T12:44:26.957Z,6.00
2023-02-14T12:45:26.968Z,6.30
2023-02-14T12:47:26.930Z,6.40
2023-02-14T12:48:26.926Z,5.80
2023-02-14T12:49:26.946Z,5.70
2023-02-14T12:50:26.904Z,6.30
2023-02-14T12:51:26.900Z,5.80
2023-02-14T12:52:26.892Z,5.90
2023-02-14T12:53:26.945Z,6.20
2023-02-14T12:54:26.916Z,7.00
2023-02-14T12:55:26.855Z,5.90
2023-02-14T12:56:26.821Z,6.40
2023-02-14T12:57:26.819Z,5.80
2023-02-14T12:58:26.887Z,6.40
2023-02-14T12:59:26.810Z,5.90
2023-02-14T13:00:26.787Z,5.50
2023-02-14T13:01:29.057Z,5.20
2023-02-14T13:02:26.836Z,7.20
2023-02-14T13:03:26.780Z,6.30
2023-02-14T13:04:26.757Z,6.00
2023-02-14T13:05:26.748Z,6.00
2023-02-14T13:06:26.733Z,6.80
2023-02-14T13:07:26.746Z,6.10
2023-02-14T13:08:26.697Z,5.90
2023-02-14T13:09:26.696Z,6.00
2023-02-14T13:10:26.712Z,6.20
2023-02-14T13:11:26.668Z,5.30
2023-02-14T13:12:26.661Z,5.90
2023-02-14T13:13:26.682Z,5.90
2023-02-14T13:14:26.658Z,6.10
2023-02-14T13:15:26.655Z,5.70
2023-02-14T13:16:26.707Z,6.10
2023-02-14T13:17:26.613Z,5.90
2023-02-14T13:18:27.356Z,5.80
2023-02-14T13:19:26.595Z,5.90